createdAt,value
2022-11-06T00:01:31.974Z,8.30
2022-11-06T00:03:59.091Z,8.30
2022-11-06T00:06:44.924Z,8.40
2022-11-06T00:09:13.749Z,8.40
2022-11-06T00:11:41.932Z,8.50
2022-11-06T00:14:09.126Z,8.50
2022-11-06T00:16:38.630Z,8.50
2022-11-06T00:19:06.577Z,8.40
2022-11-06T00:21:33.980Z,8.50
2022-11-06T00:24:03.241Z,8.50
2022-11-06T00:26:31.367Z,8.50
2022-11-06T00:28:58.859Z,8.50
2022-11-06T00:31:28.440Z,8.50
2022-11-06T00:33:57.541Z,8.50
2022-11-06T00:36:25.864Z,8.40
2022-11-06T00:38:56.609Z,8.40
2022-11-06T00:41:24.813Z,8.30
2022-11-06T00:43:54.483Z,8.30
2022-11-06T00:46:21.857Z,8.20
2022-11-06T00:48:49.004Z,8.10
2022-11-06T00:51:17.280Z,8.00
2022-11-06T00:53:45.153Z,7.90
2022-11-06T00:56:15.563Z,7.90
2022-11-06T00:58:42.805Z,7.80
2022-11-06T01:01:15.416Z,7.60
2022-11-06T01:03:44.200Z,7.60
2022-11-06T01:06:22.685Z,7.50
2022-11-06T01:08:50.136Z,7.60
2022-11-06T01:11:46.534Z,7.50
2022-11-06T01:14:19.279Z,7.50
2022-11-06T01:16:46.269Z,7.60
2022-11-06T01:19:14.632Z,7.60
2022-11-06T01:21:43.995Z,7.60
2022-11-06T01:24:19.739Z,7.50
2022-11-06T01:27:05.287Z,7.50
2022-11-06T01:29:34.233Z,7.40
2022-11-06T01:32:01.104Z,7.30
2022-11-06T01:34:28.300Z,7.30
2022-11-06T01:36:55.209Z,7.30
2022-11-06T01:39:22.050Z,7.20
2022-11-06T01:41:52.207Z,7.30
2022-11-06T01:44:41.326Z,7.30
2022-11-06T01:47:21.780Z,7.30
2022-11-06T01:49:50.441Z,7.30
2022-11-06T01:52:18.528Z,7.30
2022-11-06T01:54:48.607Z,7.30
2022-11-06T01:57:15.603Z,7.30
2022-11-06T01:59:45.952Z,7.30
2022-11-06T02:02:16.313Z,7.30
2022-11-06T02:04:46.136Z,7.40
2022-11-06T02:07:13.287Z,7.40
2022-11-06T02:09:41.688Z,7.40
2022-11-06T02:12:17.995Z,7.40
2022-11-06T02:15:01.102Z,7.40
2022-11-06T02:17:55.391Z,7.40
2022-11-06T02:20:25.143Z,7.40
2022-11-06T02:23:00.924Z,7.30
2022-11-06T02:25:52.385Z,7.30
2022-11-06T02:28:28.523Z,7.20
2022-11-06T02:30:58.346Z,7.20
2022-11-06T02:33:41.051Z,7.20
2022-11-06T02:36:12.051Z,7.10
2022-11-06T02:38:55.077Z,7.10
2022-11-06T02:41:28.354Z,7.10
2022-11-06T02:43:57.000Z,7.10
2022-11-06T02:46:37.740Z,7.10
2022-11-06T02:49:30.701Z,7.10
2022-11-06T02:52:04.915Z,7.00
2022-11-06T02:54:37.131Z,7.00
2022-11-06T02:57:07.929Z,7.00
2022-11-06T02:59:50.240Z,7.10
2022-11-06T03:02:23.467Z,7.20
2022-11-06T03:05:00.586Z,7.30
2022-11-06T03:07:31.233Z,7.30
2022-11-06T03:09:58.316Z,7.40
2022-11-06T03:12:37.618Z,7.40
2022-11-06T03:15:13.588Z,7.50
2022-11-06T03:18:13.361Z,7.50
2022-11-06T03:20:53.528Z,7.60
2022-11-06T03:23:28.695Z,7.70
2022-11-06T03:26:20.042Z,7.80
2022-11-06T03:29:16.988Z,7.80
2022-11-06T03:31:53.719Z,7.90
2022-11-06T03:34:32.602Z,7.90
2022-11-06T03:37:07.852Z,7.90
2022-11-06T03:39:39.965Z,8.00
2022-11-06T03:42:11.032Z,7.90
2022-11-06T03:44:43.635Z,7.90
2022-11-06T03:47:24.934Z,7.80
2022-11-06T03:50:00.646Z,7.80
2022-11-06T03:52:38.244Z,7.70
2022-11-06T03:55:22.623Z,7.70
2022-11-06T03:57:57.157Z,7.60
2022-11-06T04:00:24.365Z,7.60
2022-11-06T04:03:04.883Z,7.60
2022-11-06T04:05:44.140Z,7.50
2022-11-06T04:08:30.962Z,7.50
2022-11-06T04:11:20.447Z,7.50
2022-11-06T04:14:01.024Z,7.40
2022-11-06T04:16:36.289Z,7.40
2022-11-06T04:19:05.956Z,7.40
2022-11-06T04:21:48.303Z,7.40
2022-11-06T04:24:51.695Z,7.40
2022-11-06T04:27:33.450Z,7.30
2022-11-06T04:30:11.915Z,7.30
2022-11-06T04:33:06.618Z,7.30
2022-11-06T04:35:39.194Z,7.30
2022-11-06T04:38:17.798Z,7.30
2022-11-06T04:41:16.949Z,7.30
2022-11-06T04:43:46.599Z,7.40
2022-11-06T04:46:37.097Z,7.40
2022-11-06T04:49:05.412Z,7.40
2022-11-06T04:51:35.598Z,7.40
2022-11-06T04:54:02.944Z,7.50
2022-11-06T04:56:34.854Z,7.50
2022-11-06T04:59:03.955Z,7.50
2022-11-06T05:01:30.950Z,7.50
2022-11-06T05:03:58.079Z,7.50
2022-11-06T05:06:29.781Z,7.50
2022-11-06T05:08:58.315Z,7.60
2022-11-06T05:11:25.367Z,7.60
2022-11-06T05:13:52.293Z,7.60
2022-11-06T05:16:19.121Z,7.70
2022-11-06T05:18:46.001Z,7.70
2022-11-06T05:21:33.800Z,7.70
2022-11-06T05:24:00.647Z,7.70
2022-11-06T05:26:27.488Z,7.80
2022-11-06T05:28:54.372Z,7.80
2022-11-06T05:31:21.383Z,7.80
2022-11-06T05:33:48.355Z,7.90
2022-11-06T05:36:15.283Z,7.90
2022-11-06T05:38:42.195Z,7.90
2022-11-06T05:41:09.065Z,7.90
2022-11-06T05:43:35.977Z,8.00
2022-11-06T05:46:03.361Z,8.00
2022-11-06T05:48:30.613Z,8.00
2022-11-06T05:51:04.856Z,8.00
2022-11-06T05:53:34.159Z,8.00
2022-11-06T05:56:01.299Z,8.00
2022-11-06T05:58:28.790Z,8.10
2022-11-06T06:00:56.241Z,8.10
2022-11-06T06:03:23.658Z,8.10
2022-11-06T06:05:50.578Z,8.10
2022-11-06T06:08:18.163Z,8.10
2022-11-06T06:10:46.572Z,8.10
2022-11-06T06:13:14.782Z,8.10
2022-11-06T06:15:42.927Z,8.20
2022-11-06T06:18:10.365Z,8.20
2022-11-06T06:20:37.717Z,8.20
2022-11-06T06:23:08.342Z,8.20
2022-11-06T06:25:36.271Z,8.20
2022-11-06T06:28:03.096Z,8.30
2022-11-06T06:30:30.158Z,8.30
2022-11-06T06:32:57.022Z,8.30
2022-11-06T06:35:23.854Z,8.40
2022-11-06T06:37:52.832Z,8.40
2022-11-06T06:40:23.254Z,8.40
2022-11-06T06:42:50.067Z,8.50
2022-11-06T06:45:17.101Z,8.50
2022-11-06T06:47:44.059Z,8.50
2022-11-06T06:50:11.081Z,8.50
2022-11-06T06:52:37.902Z,8.60
2022-11-06T06:55:05.563Z,8.60
2022-11-06T06:57:32.677Z,8.70
2022-11-06T06:59:59.579Z,8.70
2022-11-06T07:02:26.547Z,8.80
2022-11-06T07:04:53.446Z,8.80
2022-11-06T07:07:20.274Z,8.80
2022-11-06T07:09:47.258Z,8.80
2022-11-06T07:12:14.099Z,8.90
2022-11-06T07:14:41.048Z,9.00
2022-11-06T07:17:07.990Z,9.00
2022-11-06T07:19:34.818Z,9.10
2022-11-06T07:22:01.683Z,9.10
2022-11-06T07:24:28.533Z,9.10
2022-11-06T07:26:55.404Z,9.20
2022-11-06T07:29:22.296Z,9.20
2022-11-06T07:31:49.206Z,9.20
2022-11-06T07:34:16.084Z,9.20
2022-11-06T07:36:42.949Z,9.20
2022-11-06T07:39:09.794Z,9.30
2022-11-06T07:41:37.964Z,9.30
2022-11-06T07:44:04.929Z,9.30
2022-11-06T07:46:32.242Z,9.30
2022-11-06T07:48:59.149Z,9.30
2022-11-06T07:51:26.036Z,9.30
2022-11-06T07:53:52.903Z,9.30
2022-11-06T07:56:19.807Z,9.40
2022-11-06T07:58:46.660Z,9.50
2022-11-06T08:01:18.494Z,9.50
2022-11-06T08:03:45.956Z,9.50
2022-11-06T08:06:13.169Z,9.60
2022-11-06T08:08:40.045Z,9.60
2022-11-06T08:11:09.552Z,9.70
2022-11-06T08:13:36.753Z,9.70
2022-11-06T08:16:11.099Z,9.80
2022-11-06T08:18:38.391Z,9.80
2022-11-06T08:21:07.041Z,9.80
2022-11-06T08:23:34.850Z,9.90
2022-11-06T08:26:04.618Z,9.90
2022-11-06T08:28:31.508Z,9.90
2022-11-06T08:30:58.396Z,10.00
2022-11-06T08:33:26.094Z,10.00
2022-11-06T08:35:53.058Z,10.10
2022-11-06T08:38:20.002Z,10.10
2022-11-06T08:40:52.288Z,10.10
2022-11-06T08:43:20.450Z,10.20
2022-11-06T08:45:47.259Z,10.20
2022-11-06T08:48:14.068Z,10.20
2022-11-06T08:50:41.922Z,10.20
2022-11-06T08:53:09.201Z,10.20
2022-11-06T08:55:38.726Z,10.20
2022-11-06T08:58:06.591Z,10.20
2022-11-06T09:00:33.978Z,10.30
2022-11-06T09:03:13.780Z,10.30
2022-11-06T09:05:42.430Z,10.30
2022-11-06T09:08:10.569Z,10.30
2022-11-06T09:10:38.935Z,10.30
2022-11-06T09:13:06.288Z,10.40
2022-11-06T09:15:33.311Z,10.40
2022-11-06T09:18:00.226Z,10.40
2022-11-06T09:20:27.126Z,10.40
2022-11-06T09:22:54.557Z,10.40
2022-11-06T09:25:21.989Z,10.50
2022-11-06T09:27:57.301Z,10.60
2022-11-06T09:30:26.687Z,10.60
2022-11-06T09:33:03.751Z,10.70
2022-11-06T09:35:33.499Z,10.80
2022-11-06T09:38:05.826Z,10.70
2022-11-06T09:40:39.509Z,10.70
2022-11-06T09:46:29.603Z,10.60
2022-11-06T09:49:02.318Z,10.50
2022-11-06T09:51:41.582Z,10.50
2022-11-06T09:54:29.057Z,10.40
2022-11-06T09:57:06.511Z,10.40
2022-11-06T09:59:37.474Z,10.30
2022-11-06T10:02:21.452Z,10.30
2022-11-06T10:05:09.875Z,10.40
2022-11-06T10:07:39.720Z,10.40
2022-11-06T10:10:18.156Z,10.40
2022-11-06T10:12:56.986Z,10.50
2022-11-06T10:15:29.129Z,10.50
2022-11-06T10:18:26.291Z,10.50
2022-11-06T10:20:55.094Z,10.50
2022-11-06T10:23:50.628Z,10.60
2022-11-06T10:26:20.014Z,10.70
2022-11-06T10:29:12.152Z,10.80
2022-11-06T10:32:16.748Z,10.90
2022-11-06T10:34:52.051Z,10.90
2022-11-06T10:37:31.327Z,11.00
2022-11-06T10:39:59.633Z,11.00
2022-11-06T10:42:37.696Z,11.00
2022-11-06T10:45:16.101Z,11.10
2022-11-06T10:47:49.730Z,11.10
2022-11-06T10:50:18.005Z,11.00
2022-11-06T10:52:47.911Z,11.00
2022-11-06T10:55:36.206Z,10.90
2022-11-06T10:58:09.509Z,10.90
2022-11-06T11:00:37.158Z,10.80
2022-11-06T11:03:06.981Z,10.80
2022-11-06T11:05:44.371Z,10.80
2022-11-06T11:08:42.042Z,10.80
2022-11-06T11:11:15.479Z,10.90
2022-11-06T11:13:47.399Z,10.90
2022-11-06T11:16:34.180Z,10.90
2022-11-06T11:19:32.712Z,10.90
2022-11-06T11:22:02.009Z,11.00
2022-11-06T11:24:29.462Z,11.00
2022-11-06T11:27:04.415Z,10.90
2022-11-06T11:29:41.363Z,10.90
2022-11-06T11:32:08.590Z,11.00
2022-11-06T11:34:49.185Z,11.00
2022-11-06T11:37:36.104Z,11.00
2022-11-06T11:40:36.594Z,11.00
2022-11-06T11:43:21.010Z,11.00
2022-11-06T11:46:09.503Z,11.00
2022-11-06T11:48:45.037Z,11.00
2022-11-06T11:51:18.013Z,11.00
2022-11-06T11:53:45.234Z,11.00
2022-11-06T11:56:36.423Z,11.00
2022-11-06T11:59:15.427Z,11.00
2022-11-06T12:01:42.503Z,11.00
2022-11-06T12:04:14.770Z,11.00
2022-11-06T12:06:53.974Z,11.00
2022-11-06T12:09:21.765Z,11.00
2022-11-06T12:11:48.989Z,11.00
2022-11-06T12:14:16.788Z,11.00
2022-11-06T12:16:48.459Z,11.00
2022-11-06T12:19:16.440Z,11.00
2022-11-06T12:21:49.524Z,10.90
2022-11-06T12:24:25.807Z,10.90
2022-11-06T12:27:02.999Z,10.90
2022-11-06T12:29:45.310Z,10.90
2022-11-06T12:32:39.656Z,10.90
2022-11-06T12:35:23.947Z,10.90
2022-11-06T12:38:16.721Z,10.90
2022-11-06T12:41:01.655Z,10.80
2022-11-06T12:43:40.152Z,10.80
2022-11-06T12:46:28.054Z,10.80
2022-11-06T12:49:03.888Z,10.80
2022-11-06T12:51:40.195Z,10.70
2022-11-06T12:54:31.718Z,10.70
2022-11-06T12:57:10.216Z,10.70
2022-11-06T13:00:01.024Z,10.70
2022-11-06T13:02:40.505Z,10.70
2022-11-06T13:05:16.729Z,10.70
2022-11-06T13:08:12.328Z,10.70
2022-11-06T13:10:51.530Z,10.70
2022-11-06T13:13:42.580Z,10.60
2022-11-06T13:16:24.162Z,10.50
2022-11-06T13:19:00.826Z,10.50
2022-11-06T13:21:51.703Z,10.50
2022-11-06T13:24:59.908Z,10.40
2022-11-06T13:27:50.338Z,10.50
2022-11-06T13:30:22.513Z,10.50
2022-11-06T13:33:30.060Z,10.40
2022-11-06T13:35:58.716Z,10.40
2022-11-06T13:38:33.793Z,10.40
2022-11-06T13:41:06.651Z,10.40
2022-11-06T13:43:54.056Z,10.40
2022-11-06T13:46:23.968Z,10.40
2022-11-06T13:49:04.738Z,10.40
2022-11-06T13:51:54.924Z,10.40
2022-11-06T13:54:51.205Z,10.40
2022-11-06T13:57:33.281Z,10.30
2022-11-06T14:00:23.836Z,10.30
2022-11-06T14:03:17.092Z,10.40
2022-11-06T14:05:52.516Z,10.30
2022-11-06T14:08:53.283Z,10.40
2022-11-06T14:11:26.810Z,10.30
2022-11-06T14:14:22.364Z,10.40
2022-11-06T14:17:11.253Z,10.40
2022-11-06T14:19:39.342Z,10.40
2022-11-06T14:22:09.123Z,10.40
2022-11-06T14:24:40.450Z,10.40
2022-11-06T14:27:18.725Z,10.50
2022-11-06T14:30:05.516Z,10.50
2022-11-06T14:32:33.866Z,10.50
2022-11-06T14:35:28.746Z,10.50
2022-11-06T14:38:16.137Z,10.50
2022-11-06T14:40:44.100Z,10.50
2022-11-06T14:43:34.381Z,10.50
2022-11-06T14:46:16.305Z,10.50
2022-11-06T14:48:46.592Z,10.50
2022-11-06T14:51:15.580Z,10.50
2022-11-06T14:53:51.469Z,10.60
2022-11-06T14:56:30.413Z,10.60
2022-11-06T14:59:04.853Z,10.60
2022-11-06T15:01:34.196Z,10.60
2022-11-06T15:04:31.670Z,10.60
2022-11-06T15:07:09.516Z,10.60
2022-11-06T15:09:39.369Z,10.60
2022-11-06T15:12:08.018Z,10.60
2022-11-06T15:14:34.844Z,10.60
2022-11-06T15:17:13.020Z,10.60
2022-11-06T15:19:59.372Z,10.60
2022-11-06T15:22:51.820Z,10.60
2022-11-06T15:25:28.128Z,10.60
2022-11-06T15:28:14.621Z,10.60
2022-11-06T15:30:59.759Z,10.60
2022-11-06T15:33:52.954Z,10.60
2022-11-06T15:36:23.478Z,10.60
2022-11-06T15:38:50.391Z,10.60
2022-11-06T15:41:27.708Z,10.60
2022-11-06T15:43:56.037Z,10.60
2022-11-06T15:46:29.856Z,10.60
2022-11-06T15:49:18.135Z,10.60
2022-11-06T15:52:03.880Z,10.60
2022-11-06T15:54:43.876Z,10.60
2022-11-06T15:57:19.330Z,10.50
2022-11-06T15:59:46.443Z,10.60
2022-11-06T16:02:22.448Z,10.50
2022-11-06T16:04:51.429Z,10.50
2022-11-06T16:07:19.534Z,10.40
2022-11-06T16:09:47.315Z,10.40
2022-11-06T16:12:17.259Z,10.40
2022-11-06T16:14:45.088Z,10.40
2022-11-06T16:17:32.356Z,10.40
2022-11-06T16:20:02.409Z,10.30
2022-11-06T16:22:31.232Z,10.30
2022-11-06T16:25:01.812Z,10.30
2022-11-06T16:27:34.900Z,10.30
2022-11-06T16:30:06.521Z,10.30
2022-11-06T16:32:40.499Z,10.30
2022-11-06T16:35:30.281Z,10.30
2022-11-06T16:38:12.759Z,10.30
2022-11-06T16:40:51.139Z,10.30
2022-11-06T16:43:20.700Z,10.30
2022-11-06T16:46:00.765Z,10.30
2022-11-06T16:48:34.586Z,10.20
2022-11-06T16:51:14.189Z,10.20
2022-11-06T16:53:54.303Z,10.20
2022-11-06T16:56:33.138Z,10.20
2022-11-06T16:59:05.922Z,10.20
2022-11-06T17:01:45.078Z,10.20
2022-11-06T17:04:24.064Z,10.20
2022-11-06T17:06:52.295Z,10.20
2022-11-06T17:09:31.701Z,10.20
2022-11-06T17:12:00.143Z,10.20
2022-11-06T17:14:28.152Z,10.20
2022-11-06T17:17:00.322Z,10.20
2022-11-06T17:19:28.734Z,10.20
2022-11-06T17:21:55.861Z,10.20
2022-11-06T17:24:38.376Z,10.20
2022-11-06T17:27:05.786Z,10.20
2022-11-06T17:29:34.254Z,10.20
2022-11-06T17:32:01.072Z,10.20
2022-11-06T17:34:27.913Z,10.10
2022-11-06T17:36:54.879Z,10.20
2022-11-06T17:39:22.567Z,10.10
2022-11-06T17:41:49.508Z,10.10
2022-11-06T17:44:17.406Z,10.10
2022-11-06T17:46:46.636Z,10.10
2022-11-06T17:49:18.014Z,10.10
2022-11-06T17:52:00.146Z,10.10
2022-11-06T17:54:32.283Z,10.10
2022-11-06T17:57:02.252Z,10.10
2022-11-06T17:59:29.183Z,10.10
2022-11-06T18:01:57.626Z,10.10
2022-11-06T18:04:27.176Z,10.10
2022-11-06T18:06:54.792Z,10.10
2022-11-06T18:09:22.698Z,10.10
2022-11-06T18:11:52.676Z,10.10
2022-11-06T18:14:20.865Z,10.10
2022-11-06T18:16:51.461Z,10.10
2022-11-06T18:19:21.821Z,10.10
2022-11-06T18:21:48.825Z,10.10
2022-11-06T18:24:15.911Z,10.10
2022-11-06T18:26:42.788Z,10.10
2022-11-06T18:29:11.328Z,10.10
2022-11-06T18:31:38.379Z,10.10
2022-11-06T18:34:06.424Z,10.10
2022-11-06T18:36:35.074Z,10.10
2022-11-06T18:39:02.081Z,10.20
2022-11-06T18:41:30.038Z,10.20
2022-11-06T18:43:57.826Z,10.20
2022-11-06T18:46:26.840Z,10.20
2022-11-06T18:48:55.456Z,10.10
2022-11-06T18:51:34.472Z,10.20
2022-11-06T18:54:07.940Z,10.10
2022-11-06T18:56:38.935Z,10.20
2022-11-06T18:59:08.262Z,10.20
2022-11-06T19:01:35.483Z,10.20
2022-11-06T19:04:03.858Z,10.20
2022-11-06T19:06:31.689Z,10.20
2022-11-06T19:08:58.935Z,10.20
2022-11-06T19:11:25.895Z,10.10
2022-11-06T19:13:53.001Z,10.20
2022-11-06T19:16:20.005Z,10.20
2022-11-06T19:21:30.008Z,10.20
2022-11-06T19:24:03.819Z,10.10
2022-11-06T19:26:32.726Z,10.20
2022-11-06T19:29:00.855Z,10.20
2022-11-06T19:31:29.510Z,10.20
2022-11-06T19:34:00.844Z,10.20
2022-11-06T19:36:28.313Z,10.10
2022-11-06T19:38:57.181Z,10.20
2022-11-06T19:41:28.327Z,10.10
2022-11-06T19:43:55.295Z,10.10
2022-11-06T19:46:25.998Z,10.10
2022-11-06T19:48:55.467Z,10.20
2022-11-06T19:51:22.438Z,10.20
2022-11-06T19:53:53.295Z,10.10
2022-11-06T19:56:21.093Z,10.10
2022-11-06T19:58:50.076Z,10.20
2022-11-06T20:01:17.504Z,10.10
2022-11-06T20:03:44.729Z,10.10
2022-11-06T20:06:13.356Z,10.20
2022-11-06T20:08:40.638Z,10.20
2022-11-06T20:11:12.427Z,10.20
2022-11-06T20:13:40.758Z,10.20
2022-11-06T20:16:13.352Z,10.20
2022-11-06T20:18:40.468Z,10.10
2022-11-06T20:21:10.009Z,10.10
2022-11-06T20:23:37.558Z,10.20
2022-11-06T20:26:05.422Z,10.20
2022-11-06T20:28:33.117Z,10.20
2022-11-06T20:31:00.071Z,10.30
2022-11-06T20:33:27.049Z,10.30
2022-11-06T20:35:53.924Z,10.30
2022-11-06T20:38:20.934Z,10.20
2022-11-06T20:40:47.774Z,10.30
2022-11-06T20:43:15.009Z,10.20
2022-11-06T20:45:42.033Z,10.30
2022-11-06T20:48:09.388Z,10.30
2022-11-06T20:50:36.452Z,10.30
2022-11-06T20:53:03.388Z,10.30
2022-11-06T20:55:30.385Z,10.40
2022-11-06T20:57:57.290Z,10.30
2022-11-06T21:00:24.931Z,10.40
2022-11-06T21:02:53.557Z,10.40
2022-11-06T21:05:23.323Z,10.40
2022-11-06T21:07:50.185Z,10.40
2022-11-06T21:10:17.149Z,10.40
2022-11-06T21:12:44.031Z,10.40
2022-11-06T21:15:10.975Z,10.40
2022-11-06T21:17:42.470Z,10.40
2022-11-06T21:20:10.901Z,10.40
2022-11-06T21:22:37.783Z,10.40
2022-11-06T21:25:04.976Z,10.40
2022-11-06T21:27:31.865Z,10.40
2022-11-06T21:29:58.735Z,10.40
2022-11-06T21:32:27.534Z,10.50
2022-11-06T21:34:54.466Z,10.50
2022-11-06T21:37:32.773Z,10.50
2022-11-06T21:40:00.616Z,10.50
2022-11-06T21:42:28.030Z,10.50
2022-11-06T21:44:55.016Z,10.50
2022-11-06T21:47:21.882Z,10.50
2022-11-06T21:49:54.126Z,10.50
2022-11-06T21:52:40.859Z,10.50
2022-11-06T21:55:28.376Z,10.50
2022-11-06T21:57:55.286Z,10.50
2022-11-06T22:00:22.216Z,10.50
2022-11-06T22:02:51.098Z,10.60
2022-11-06T22:05:18.486Z,10.60
2022-11-06T22:07:45.666Z,10.50
2022-11-06T22:10:12.946Z,10.60
2022-11-06T22:12:39.816Z,10.60
2022-11-06T22:15:07.272Z,10.60
2022-11-06T22:17:34.246Z,10.60
2022-11-06T22:20:01.210Z,10.60
2022-11-06T22:22:28.110Z,10.60
2022-11-06T22:24:54.913Z,10.60
2022-11-06T22:27:21.895Z,10.60
2022-11-06T22:29:48.698Z,10.60
2022-11-06T22:32:15.597Z,10.60
2022-11-06T22:34:42.469Z,10.60
2022-11-06T22:37:09.421Z,10.60
2022-11-06T22:39:36.419Z,10.60
2022-11-06T22:42:03.589Z,10.60
2022-11-06T22:44:35.083Z,10.60
2022-11-06T22:47:02.480Z,10.60
2022-11-06T22:49:29.328Z,10.70
2022-11-06T22:51:56.200Z,10.60
2022-11-06T22:54:23.183Z,10.60
2022-11-06T22:56:50.143Z,10.60
2022-11-06T22:59:16.964Z,10.60
2022-11-06T23:01:43.906Z,10.60
2022-11-06T23:04:15.405Z,10.60
2022-11-06T23:06:43.825Z,10.60
2022-11-06T23:09:10.798Z,10.60
2022-11-06T23:11:37.666Z,10.60
2022-11-06T23:14:08.501Z,10.60
2022-11-06T23:16:54.944Z,10.60
2022-11-06T23:19:22.542Z,10.60
2022-11-06T23:21:49.647Z,10.60
2022-11-06T23:24:16.494Z,10.60
2022-11-06T23:26:44.567Z,10.60
2022-11-06T23:29:11.458Z,10.60
2022-11-06T23:31:38.734Z,10.60
2022-11-06T23:34:05.648Z,10.70
2022-11-06T23:36:32.512Z,10.70
2022-11-06T23:38:59.524Z,10.60
2022-11-06T23:41:45.950Z,10.60
2022-11-06T23:44:33.188Z,10.60
2022-11-06T23:47:00.950Z,10.60
2022-11-06T23:49:28.072Z,10.60
2022-11-06T23:51:55.008Z,10.70
2022-11-06T23:54:21.950Z,10.60
2022-11-06T23:56:48.784Z,10.60
2022-11-06T23:59:15.894Z,10.60
